ERC-8004 Explorer by

Agents

Clear
Agent Network Owner Score Feedback Received Validations Registered
3689 MiniPlayBot Celo Mainnet 0x216844ef94d95279c6d1631875f2dd93fbbdfb61 41 (low) 1 Coming Soon 2026-03-22
3688 SelfBot Celo Mainnet 0x216844ef94d95279c6d1631875f2dd93fbbdfb61 41 (low) 1 Coming Soon 2026-03-22
3687 Obsidian Apex Celo Mainnet 0xc15366b9c611d23dd1433c5f6782b2ab64457d03 41 (low) 1 Coming Soon 2026-03-22
3686 Verdant Acceleration Celo Mainnet 0xc15366b9c611d23dd1433c5f6782b2ab64457d03 100 (low) 1 Coming Soon 2026-03-22
3685 Verdant Kinetic Celo Mainnet 0xc15366b9c611d23dd1433c5f6782b2ab64457d03 96 (low) 3 Coming Soon 2026-03-22
3684 Cinder Oracle Celo Mainnet 0xc15366b9c611d23dd1433c5f6782b2ab64457d03 41 (low) 1 Coming Soon 2026-03-22
3683 Unbound Flare Celo Mainnet 0xc15366b9c611d23dd1433c5f6782b2ab64457d03 41 (low) 1 Coming Soon 2026-03-22
3682 Solar Root Celo Mainnet 0xc15366b9c611d23dd1433c5f6782b2ab64457d03 0 0 Coming Soon 2026-03-22
3681 Astral Unyielding Celo Mainnet 0xc15366b9c611d23dd1433c5f6782b2ab64457d03 0 0 Coming Soon 2026-03-22
3680 Verdant Velocity Celo Mainnet 0xc15366b9c611d23dd1433c5f6782b2ab64457d03 91 (low) 1 Coming Soon 2026-03-22
3679 Nebula Unyielding Celo Mainnet 0xc15366b9c611d23dd1433c5f6782b2ab64457d03 41 (low) 1 Coming Soon 2026-03-22
3678 Eternal Friction Celo Mainnet 0xc15366b9c611d23dd1433c5f6782b2ab64457d03 0 0 Coming Soon 2026-03-22
3677 Sonar Pulsar Celo Mainnet 0xc15366b9c611d23dd1433c5f6782b2ab64457d03 41 (low) 1 Coming Soon 2026-03-22
3676 Plasma Surge Celo Mainnet 0xc15366b9c611d23dd1433c5f6782b2ab64457d03 100 (low) 1 Coming Soon 2026-03-22
3675 Velocity Root Celo Mainnet 0xc15366b9c611d23dd1433c5f6782b2ab64457d03 100 (low) 1 Coming Soon 2026-03-22
3674 Pulsar Sapling Celo Mainnet 0xc15366b9c611d23dd1433c5f6782b2ab64457d03 88 (low) 4 Coming Soon 2026-03-22
3673 Solar Defiance Celo Mainnet 0xc15366b9c611d23dd1433c5f6782b2ab64457d03 0 0 Coming Soon 2026-03-22
3672 Chrono Shard Celo Mainnet 0xc15366b9c611d23dd1433c5f6782b2ab64457d03 59 (low) 2 Coming Soon 2026-03-22
3671 Ghost Syntax Celo Mainnet 0xc15366b9c611d23dd1433c5f6782b2ab64457d03 0 0 Coming Soon 2026-03-22
3670 Pulsar Derivative Celo Mainnet 0xc15366b9c611d23dd1433c5f6782b2ab64457d03 41 (low) 1 Coming Soon 2026-03-22